This is the latest recevied weather packets stored in our database for station/object K5OLV. If no packets are shown the sender has not sent any weather packets the latest 10 day(s).
| Time | Temp. | Humidity | Pressure | Rain* | Wind** | Luminosity | Snow |
|---|---|---|---|---|---|---|---|
| 1787972150 | 22.78° C | 83% | 1016.8 hPa | 0 mm | - | 0 W/m² | - |
| 1787971846 | 22.22° C | 85% | 1016.7 hPa | 0 mm | - | 0 W/m² | - |
| 1787971542 | 22.22° C | 85% | 1016.7 hPa | 0 mm | - | 0 W/m² | - |
| 1787971237 | 22.78° C | 84% | 1016.6 hPa | 0 mm | - | 0 W/m² | - |
| 1787970937 | 22.78° C | 82% | 1016.3 hPa | 0 mm | - | 0 W/m² | - |
| 1787970632 | 22.78° C | 82% | 1016.5 hPa | 0 mm | - | 0 W/m² | - |
| 1787970331 | 23.33° C | 81% | 1016.3 hPa | 0 mm | - | 0 W/m² | - |
| 1787970030 | 23.33° C | 80% | 1016.4 hPa | 0 mm | - | 0 W/m² | - |
| 1787969729 | 23.33° C | 80% | 1016.4 hPa | 0 mm | - | 0 W/m² | - |
| 1787969429 | 23.89° C | 81% | 1016.3 hPa | 0 mm | - | 0 W/m² | - |
| 1787969123 | 23.33° C | 80% | 1016.2 hPa | 0 mm | - | 0 W/m² | - |
| 1787968818 | 23.33° C | 81% | 1016 hPa | 0 mm | - | 0 W/m² | - |
| 1787968517 | 23.33° C | 83% | 1016.2 hPa | 0 mm | - | 0 W/m² | - |
| 1787968213 | 23.33° C | 83% | 1016.2 hPa | 0 mm | - | 0 W/m² | - |
| 1787967908 | 23.33° C | 83% | 1016 hPa | 0 mm | - | 0 W/m² | - |
| 1787967603 | 23.89° C | 80% | 1015.9 hPa | 0 mm | - | 0 W/m² | - |
| 1787967298 | 23.89° C | 81% | 1015.8 hPa | 0 mm | - | 0 W/m² | - |
| 1787966994 | 24.44° C | 79% | 1015.8 hPa | 0 mm | - | 0 W/m² | - |
| 1787966691 | 25° C | 78% | 1015.5 hPa | 0 mm | - | 0 W/m² | - |
| 1787966390 | 24.44° C | 79% | 1015.4 hPa | 0 mm | - | 0 W/m² | - |
| 1787966085 | 23.89° C | 81% | 1015.6 hPa | 0 mm | - | 0 W/m² | - |
| 1787965784 | 24.44° C | 80% | 1015.4 hPa | 0 mm | - | 0 W/m² | - |
| 1787965479 | 25° C | 79% | 1015.4 hPa | 0 mm | - | 0 W/m² | - |
| 1787965178 | 24.44° C | 81% | 1015.4 hPa | 0 mm | - | 0 W/m² | - |
| 1787964873 | 24.44° C | 79% | 1015.1 hPa | 0 mm | - | 0 W/m² | - |
* Rain latest hour (hover to see other rain measurements)
** Current wind speed in m/s (hover to see current wind gust speed)